Time;durP1;ratioP1;P1;durP2;ratioP2;P2;SDS_P1;SDS_P2;PMS_P1;PMS_P2;Temp;Humidity;BMP_temperature;BMP_pressure;BME280_temperature;BME280_humidity;BME280_pressure;Samples;Min_cycle;Max_cycle;Signal;HPM_P1;HPM_P2
2021/12/23 00:02:02;;;;;;;34.38;14.93;;;;;;;;;;5031289;28;20473;-61
2021/12/23 00:04:27;;;;;;;30.08;14.25;;;;;;;;;;5032074;28;20040;-60
2021/12/23 00:06:52;;;;;;;31.30;14.68;;;;;;;;;;5014320;28;20026;-60
2021/12/23 00:09:18;;;;;;;30.55;14.65;;;;;;;;;;5012658;28;20440;-59
2021/12/23 00:11:44;;;;;;;31.70;15.30;;;;;;;;;;5017110;28;20026;-60
2021/12/23 00:14:10;;;;;;;28.15;14.40;;;;;;;;;;5025861;28;20033;-60
2021/12/23 00:24:39;;;;;;;32.17;15.02;;;;;;;;;;5028790;28;20040;-60
2021/12/23 00:27:06;;;;;;;30.83;14.10;;;;;;;;;;5023857;28;20041;-59
2021/12/23 00:29:31;;;;;;;30.95;14.55;;;;;;;;;;5030417;28;20030;-59
2021/12/23 00:31:57;;;;;;;30.38;14.40;;;;;;;;;;5031212;28;20092;-66
2021/12/23 00:34:23;;;;;;;30.35;13.00;;;;;;;;;;5028261;28;20498;-63
2021/12/23 00:36:49;;;;;;;32.42;14.63;;;;;;;;;;5035587;28;20103;-64
2021/12/23 00:39:16;;;;;;;34.72;15.35;;;;;;;;;;5025522;28;20072;-66
2021/12/23 00:41:43;;;;;;;33.13;14.98;;;;;;;;;;5022902;28;20384;-65
2021/12/23 00:44:09;;;;;;;33.38;15.57;;;;;;;;;;5021634;28;20061;-66
2021/12/23 00:46:34;;;;;;;33.20;15.02;;;;;;;;;;5016628;28;20061;-66
2021/12/23 00:49:00;;;;;;;37.33;14.60;;;;;;;;;;5020591;28;20033;-66
2021/12/23 00:51:26;;;;;;;33.67;15.32;;;;;;;;;;5035676;28;20459;-65
2021/12/23 00:53:54;;;;;;;32.75;14.38;;;;;;;;;;5023866;28;20064;-65
2021/12/23 00:56:19;;;;;;;34.47;16.00;;;;;;;;;;5027673;28;20022;-66
2021/12/23 00:58:45;;;;;;;30.52;15.50;;;;;;;;;;5030389;28;20074;-65
2021/12/23 01:01:11;;;;;;;30.88;13.85;;;;;;;;;;5035520;28;20358;-64
2021/12/23 01:03:36;;;;;;;39.92;16.27;;;;;;;;;;5022337;28;20517;-65
2021/12/23 01:06:02;;;;;;;35.15;15.48;;;;;;;;;;5028325;28;20033;-66
2021/12/23 01:08:28;;;;;;;29.95;15.38;;;;;;;;;;5016505;28;20127;-64
2021/12/23 01:10:57;;;;;;;37.10;15.45;;;;;;;;;;5020303;28;20033;-67
2021/12/23 01:13:28;;;;;;;33.55;13.85;;;;;;;;;;5026232;28;20037;-66
2021/12/23 01:16:01;;;;;;;34.60;15.02;;;;;;;;;;5032627;28;20104;-65
2021/12/23 01:18:31;;;;;;;33.22;14.88;;;;;;;;;;5034939;28;20454;-65
2021/12/23 01:21:19;;;;;;;25.90;13.00;;;;;;;;;;5016130;28;20037;-65
2021/12/23 01:23:57;;;;;;;30.50;14.60;;;;;;;;;;5014722;28;20520;-60
2021/12/23 01:26:23;;;;;;;31.48;14.43;;;;;;;;;;5021244;28;20481;-60
2021/12/23 01:28:55;;;;;;;34.72;14.30;;;;;;;;;;5029800;28;20432;-66
2021/12/23 01:31:23;;;;;;;35.30;14.95;;;;;;;;;;5034383;28;20025;-64
2021/12/23 01:33:49;;;;;;;34.08;14.88;;;;;;;;;;5034257;28;20041;-66
2021/12/23 01:36:14;;;;;;;30.98;14.30;;;;;;;;;;5033939;28;20095;-66
2021/12/23 01:38:40;;;;;;;32.10;14.75;;;;;;;;;;5033820;28;20561;-64
2021/12/23 01:41:05;;;;;;;32.17;14.27;;;;;;;;;;5033845;28;20037;-59
2021/12/23 01:43:33;;;;;;;29.42;13.27;;;;;;;;;;5033378;28;20038;-59
2021/12/23 01:45:58;;;;;;;29.00;14.82;;;;;;;;;;5033721;28;20479;-64
2021/12/23 01:48:24;;;;;;;30.25;14.20;;;;;;;;;;5033999;28;20083;-64
2021/12/23 01:50:49;;;;;;;26.25;14.10;;;;;;;;;;5031406;28;20026;-63
2021/12/23 01:53:17;;;;;;;32.60;11.90;;;;;;;;;;5031431;28;20033;-59
2021/12/23 01:55:42;;;;;;;28.42;13.45;;;;;;;;;;5029029;28;20477;-59
2021/12/23 01:58:10;;;;;;;30.27;14.65;;;;;;;;;;5031859;28;20029;-60
2021/12/23 02:00:37;;;;;;;34.50;15.15;;;;;;;;;;5029435;28;20024;-62
2021/12/23 02:03:03;;;;;;;29.23;13.13;;;;;;;;;;5028497;28;20108;-59
2021/12/23 02:05:30;;;;;;;29.27;12.73;;;;;;;;;;5033536;28;20108;-59
2021/12/23 02:07:56;;;;;;;28.42;12.55;;;;;;;;;;5029231;28;20044;-62
2021/12/23 02:10:22;;;;;;;30.80;13.55;;;;;;;;;;5033369;28;20023;-59
2021/12/23 02:12:49;;;;;;;29.92;13.30;;;;;;;;;;5029460;28;20395;-59
2021/12/23 02:15:16;;;;;;;29.70;12.93;;;;;;;;;;5017022;28;20036;-59
2021/12/23 02:17:42;;;;;;;31.10;13.43;;;;;;;;;;5030111;28;20481;-60
2021/12/23 02:20:10;;;;;;;30.30;14.23;;;;;;;;;;5014070;28;20030;-60
2021/12/23 02:22:36;;;;;;;19.05;9.15;;;;;;;;;;5017389;28;20405;-59
2021/12/23 02:25:04;;;;;;;35.40;14.57;;;;;;;;;;5032026;28;20175;-60
2021/12/23 02:27:29;;;;;;;30.77;13.52;;;;;;;;;;5033233;28;20100;-59
2021/12/23 02:29:55;;;;;;;28.50;13.57;;;;;;;;;;5028702;28;20112;-59
2021/12/23 02:32:20;;;;;;;29.60;11.77;;;;;;;;;;5027394;28;20068;-66
2021/12/23 02:34:46;;;;;;;27.17;11.75;;;;;;;;;;5024657;28;20033;-66
2021/12/23 02:37:13;;;;;;;37.92;12.73;;;;;;;;;;5028244;28;20048;-62
2021/12/23 02:39:40;;;;;;;29.73;14.30;;;;;;;;;;5032898;28;20056;-66
2021/12/23 02:42:05;;;;;;;28.33;12.30;;;;;;;;;;5029741;28;20045;-66
2021/12/23 02:44:31;;;;;;;32.67;14.10;;;;;;;;;;5033450;28;20033;-65
2021/12/23 02:46:57;;;;;;;31.00;13.95;;;;;;;;;;5033508;28;20109;-66
2021/12/23 02:49:22;;;;;;;21.90;11.73;;;;;;;;;;5029253;28;20097;-65
2021/12/23 02:51:48;;;;;;;34.03;14.50;;;;;;;;;;5017959;28;20530;-66
2021/12/23 02:54:13;;;;;;;30.52;13.23;;;;;;;;;;5022281;28;20067;-65
2021/12/23 02:56:39;;;;;;;22.65;9.98;;;;;;;;;;5033216;28;20029;-65
2021/12/23 02:59:04;;;;;;;29.60;13.07;;;;;;;;;;5032918;28;20025;-66
2021/12/23 03:01:30;;;;;;;34.22;14.55;;;;;;;;;;5033352;28;20029;-65
2021/12/23 03:03:56;;;;;;;25.88;11.68;;;;;;;;;;5033114;28;20049;-65
2021/12/23 03:06:22;;;;;;;30.08;12.18;;;;;;;;;;5032963;28;20021;-65
2021/12/23 03:08:59;;;;;;;23.98;12.00;;;;;;;;;;5019668;28;20029;-66
2021/12/23 03:11:27;;;;;;;20.05;9.82;;;;;;;;;;5022624;28;20026;-66
2021/12/23 03:13:54;;;;;;;32.20;14.15;;;;;;;;;;5016071;28;20503;-66
2021/12/23 03:16:27;;;;;;;30.08;14.02;;;;;;;;;;5038419;28;20426;-66
2021/12/23 03:18:53;;;;;;;28.52;11.95;;;;;;;;;;5032205;28;20029;-66
2021/12/23 03:21:19;;;;;;;33.38;14.07;;;;;;;;;;5038304;28;20025;-66
2021/12/23 03:23:46;;;;;;;28.60;14.27;;;;;;;;;;5035248;28;20469;-65
2021/12/23 03:26:12;;;;;;;31.83;13.93;;;;;;;;;;5007666;28;20024;-65
2021/12/23 03:28:38;;;;;;;28.55;14.32;;;;;;;;;;5031316;28;20034;-66
2021/12/23 03:31:04;;;;;;;21.98;10.57;;;;;;;;;;5023044;28;20041;-61
2021/12/23 03:33:30;;;;;;;31.00;14.20;;;;;;;;;;5015581;28;20033;-65
2021/12/23 03:35:55;;;;;;;26.55;12.75;;;;;;;;;;5032689;28;20029;-60
2021/12/23 03:38:22;;;;;;;28.48;12.52;;;;;;;;;;5020501;28;20096;-65
2021/12/23 03:40:48;;;;;;;33.50;14.32;;;;;;;;;;5022520;28;20030;-64
2021/12/23 03:43:14;;;;;;;33.70;14.20;;;;;;;;;;5032529;28;20032;-59
2021/12/23 03:45:42;;;;;;;28.17;12.38;;;;;;;;;;5032307;28;20044;-61
2021/12/23 03:48:08;;;;;;;27.98;13.13;;;;;;;;;;5032157;28;20491;-65
2021/12/23 03:50:34;;;;;;;28.65;13.70;;;;;;;;;;5031835;28;20094;-65
2021/12/23 03:53:00;;;;;;;29.73;13.60;;;;;;;;;;5031924;28;20384;-66
2021/12/23 03:55:25;;;;;;;30.35;12.90;;;;;;;;;;5031899;28;20029;-63
2021/12/23 03:57:51;;;;;;;25.90;13.13;;;;;;;;;;5039756;28;20041;-63
2021/12/23 04:00:19;;;;;;;26.40;12.77;;;;;;;;;;5032194;28;20041;-63
2021/12/23 04:02:46;;;;;;;27.42;12.30;;;;;;;;;;5027791;28;20033;-65
2021/12/23 04:05:12;;;;;;;32.53;13.52;;;;;;;;;;5025150;28;20029;-66
2021/12/23 04:07:40;;;;;;;26.13;12.63;;;;;;;;;;5026955;28;20421;-66
2021/12/23 04:10:08;;;;;;;27.98;13.38;;;;;;;;;;5020163;28;20030;-64
2021/12/23 04:12:34;;;;;;;23.08;10.88;;;;;;;;;;5031546;28;20532;-64
2021/12/23 04:15:00;;;;;;;32.38;14.88;;;;;;;;;;5031025;28;20132;-64
2021/12/23 04:17:25;;;;;;;17.25;9.07;;;;;;;;;;5025772;28;20030;-63
2021/12/23 04:19:51;;;;;;;30.23;15.63;;;;;;;;;;5031957;28;20091;-60
2021/12/23 04:22:17;;;;;;;28.25;13.75;;;;;;;;;;5031956;28;20021;-62
2021/12/23 04:24:42;;;;;;;31.15;14.60;;;;;;;;;;5031863;28;20029;-63
2021/12/23 04:27:08;;;;;;;27.17;13.00;;;;;;;;;;5031703;28;20021;-58
2021/12/23 04:29:34;;;;;;;27.95;13.10;;;;;;;;;;5031930;28;20435;-59
2021/12/23 04:32:00;;;;;;;32.35;14.02;;;;;;;;;;5031713;28;20017;-59
2021/12/23 04:34:26;;;;;;;31.88;14.85;;;;;;;;;;5032049;28;20030;-59
2021/12/23 04:36:51;;;;;;;31.33;15.35;;;;;;;;;;5013989;28;20384;-65
2021/12/23 04:39:17;;;;;;;30.85;15.00;;;;;;;;;;5031667;28;20045;-63
2021/12/23 04:41:42;;;;;;;24.02;11.10;;;;;;;;;;5031528;28;20024;-65
2021/12/23 04:44:08;;;;;;;29.45;14.70;;;;;;;;;;5031786;28;20033;-65
2021/12/23 04:46:33;;;;;;;30.27;14.27;;;;;;;;;;5031682;28;20079;-66
2021/12/23 04:48:59;;;;;;;30.02;14.30;;;;;;;;;;5031902;28;20029;-66
2021/12/23 04:51:24;;;;;;;29.67;13.15;;;;;;;;;;5031649;28;20028;-62
2021/12/23 04:53:50;;;;;;;33.03;15.43;;;;;;;;;;5031501;28;20107;-65
2021/12/23 04:56:17;;;;;;;20.00;10.70;;;;;;;;;;5031537;28;20021;-64
2021/12/23 04:58:43;;;;;;;25.45;14.13;;;;;;;;;;5031607;28;20036;-65
2021/12/23 05:01:17;;;;;;;28.20;13.52;;;;;;;;;;5032639;28;20109;-64
2021/12/23 05:03:42;;;;;;;24.55;10.98;;;;;;;;;;5035587;28;20048;-66
2021/12/23 05:06:08;;;;;;;30.65;13.27;;;;;;;;;;5035161;28;20476;-65
2021/12/23 05:08:33;;;;;;;26.42;13.35;;;;;;;;;;5035122;28;20528;-66
2021/12/23 05:10:59;;;;;;;29.23;13.75;;;;;;;;;;5030569;28;20022;-65
2021/12/23 05:13:24;;;;;;;29.20;13.25;;;;;;;;;;5015448;28;20022;-65
2021/12/23 05:15:50;;;;;;;31.00;13.82;;;;;;;;;;5033628;28;20358;-66
2021/12/23 05:18:15;;;;;;;31.70;14.35;;;;;;;;;;5035261;28;20069;-60
2021/12/23 05:20:41;;;;;;;26.00;13.15;;;;;;;;;;5017449;28;20025;-62
2021/12/23 05:23:06;;;;;;;30.48;13.73;;;;;;;;;;5034563;28;20217;-65
2021/12/23 05:25:32;;;;;;;27.23;13.57;;;;;;;;;;5034193;28;20129;-63
2021/12/23 05:27:58;;;;;;;30.98;14.63;;;;;;;;;;5035109;28;20030;-66
2021/12/23 05:30:25;;;;;;;28.70;15.20;;;;;;;;;;5035018;28;20476;-65
2021/12/23 05:32:50;;;;;;;26.83;15.32;;;;;;;;;;5034674;28;20037;-66
2021/12/23 05:35:17;;;;;;;25.65;12.38;;;;;;;;;;5034890;28;20532;-65
2021/12/23 05:37:43;;;;;;;28.67;13.68;;;;;;;;;;5034361;28;20029;-64
2021/12/23 05:40:11;;;;;;;31.90;13.75;;;;;;;;;;5034787;28;20033;-62
2021/12/23 05:42:37;;;;;;;25.33;12.98;;;;;;;;;;5034794;28;20033;-65
2021/12/23 05:45:03;;;;;;;29.83;14.43;;;;;;;;;;5034704;28;20499;-66
2021/12/23 05:47:28;;;;;;;31.60;14.18;;;;;;;;;;5033370;28;20392;-63
2021/12/23 05:49:54;;;;;;;28.23;14.63;;;;;;;;;;5034086;28;20021;-65
2021/12/23 05:52:19;;;;;;;31.15;14.98;;;;;;;;;;5034656;28;20032;-65
2021/12/23 05:54:45;;;;;;;24.67;14.23;;;;;;;;;;5030938;28;20030;-65
2021/12/23 05:57:10;;;;;;;30.95;14.75;;;;;;;;;;5036834;28;20108;-61
2021/12/23 05:59:36;;;;;;;30.15;13.10;;;;;;;;;;5037887;28;20025;-64
2021/12/23 06:02:06;;;;;;;29.27;14.05;;;;;;;;;;5032060;28;20021;-67
2021/12/23 06:04:33;;;;;;;23.05;11.68;;;;;;;;;;5020904;28;20084;-65
2021/12/23 06:06:58;;;;;;;29.42;12.27;;;;;;;;;;5025660;28;20048;-64
2021/12/23 06:09:24;;;;;;;26.13;13.02;;;;;;;;;;5029339;28;20030;-63
2021/12/23 06:11:49;;;;;;;29.17;14.45;;;;;;;;;;5029304;28;20040;-63
2021/12/23 06:14:16;;;;;;;29.20;13.48;;;;;;;;;;5031567;28;20148;-65
2021/12/23 06:16:42;;;;;;;32.53;14.27;;;;;;;;;;5028503;28;20037;-59
2021/12/23 06:19:08;;;;;;;31.75;15.50;;;;;;;;;;5026261;28;20484;-59
2021/12/23 06:21:33;;;;;;;32.72;16.02;;;;;;;;;;5026257;28;20041;-61
2021/12/23 06:23:59;;;;;;;31.13;13.68;;;;;;;;;;5029561;28;20033;-62
2021/12/23 06:26:25;;;;;;;35.78;16.65;;;;;;;;;;5029567;28;20049;-59
2021/12/23 06:28:51;;;;;;;31.20;14.82;;;;;;;;;;5024999;28;20464;-59
2021/12/23 06:31:16;;;;;;;30.52;13.60;;;;;;;;;;5028412;28;20030;-59
2021/12/23 06:33:41;;;;;;;32.15;16.75;;;;;;;;;;5015025;28;20088;-59
2021/12/23 06:36:07;;;;;;;36.55;15.40;;;;;;;;;;5031174;28;20033;-60
2021/12/23 06:38:35;;;;;;;27.75;14.30;;;;;;;;;;5026934;28;20045;-64
2021/12/23 06:41:01;;;;;;;32.38;15.75;;;;;;;;;;5032495;28;20099;-65
2021/12/23 06:43:26;;;;;;;20.30;10.25;;;;;;;;;;5033584;28;20037;-66
2021/12/23 06:45:51;;;;;;;34.65;16.40;;;;;;;;;;5033578;28;20017;-67
2021/12/23 06:48:17;;;;;;;29.90;14.73;;;;;;;;;;5030040;28;20155;-64
2021/12/23 06:50:43;;;;;;;28.25;15.05;;;;;;;;;;5027426;28;20438;-64
2021/12/23 06:53:08;;;;;;;27.67;12.45;;;;;;;;;;5021687;28;20423;-66
2021/12/23 06:55:34;;;;;;;17.65;8.65;;;;;;;;;;5031243;28;20088;-67
2021/12/23 06:58:00;;;;;;;32.45;15.13;;;;;;;;;;5025212;28;20029;-67
2021/12/23 07:00:29;;;;;;;36.15;14.35;;;;;;;;;;5023156;28;20039;-63
2021/12/23 07:02:55;;;;;;;33.60;15.00;;;;;;;;;;5020178;28;20413;-64
2021/12/23 07:05:22;;;;;;;28.10;12.20;;;;;;;;;;5021790;28;20084;-67
2021/12/23 07:08:05;;;;;;;30.63;15.38;;;;;;;;;;5033222;28;20017;-63
2021/12/23 07:10:32;;;;;;;20.50;10.65;;;;;;;;;;5033125;28;20087;-66
2021/12/23 07:12:59;;;;;;;29.98;11.40;;;;;;;;;;5032072;28;20068;-67
2021/12/23 07:15:26;;;;;;;31.70;15.57;;;;;;;;;;5017083;28;20577;-66
2021/12/23 07:17:53;;;;;;;34.13;15.75;;;;;;;;;;5011840;28;20037;-66
2021/12/23 07:20:18;;;;;;;31.83;14.95;;;;;;;;;;5012896;28;20469;-64
2021/12/23 07:22:44;;;;;;;25.77;12.52;;;;;;;;;;5031531;28;20095;-66
2021/12/23 07:25:10;;;;;;;34.15;16.33;;;;;;;;;;5031875;28;20108;-67
2021/12/23 07:27:35;;;;;;;33.40;16.63;;;;;;;;;;5032388;28;20429;-64
2021/12/23 07:30:03;;;;;;;36.13;16.27;;;;;;;;;;5032840;28;20026;-65
2021/12/23 07:32:28;;;;;;;36.17;16.55;;;;;;;;;;5032617;28;20025;-61
2021/12/23 07:34:53;;;;;;;27.25;14.18;;;;;;;;;;5032530;28;20369;-64
2021/12/23 07:37:20;;;;;;;38.05;16.63;;;;;;;;;;5032625;28;20022;-66
2021/12/23 07:39:47;;;;;;;32.72;14.43;;;;;;;;;;5032321;28;20103;-66
2021/12/23 07:42:15;;;;;;;28.88;14.93;;;;;;;;;;5032565;28;20036;-67
2021/12/23 07:44:44;;;;;;;29.67;15.30;;;;;;;;;;5032707;28;20029;-61
2021/12/23 07:47:10;;;;;;;34.65;16.63;;;;;;;;;;5014791;28;20029;-61
2021/12/23 07:49:36;;;;;;;23.33;12.30;;;;;;;;;;5032550;28;20029;-63
2021/12/23 07:52:01;;;;;;;28.17;13.48;;;;;;;;;;5032907;28;20028;-63
2021/12/23 07:54:27;;;;;;;36.10;15.80;;;;;;;;;;5032535;28;20487;-64
2021/12/23 07:56:52;;;;;;;24.52;12.63;;;;;;;;;;5032562;28;20056;-66
2021/12/23 07:59:18;;;;;;;33.50;16.33;;;;;;;;;;5032547;28;20028;-66
2021/12/23 08:01:43;;;;;;;35.83;15.68;;;;;;;;;;5032327;28;20125;-61
2021/12/23 08:04:08;;;;;;;33.10;14.50;;;;;;;;;;5032591;28;20487;-60
2021/12/23 08:06:34;;;;;;;19.08;10.80;;;;;;;;;;5032494;28;20021;-60
2021/12/23 08:08:59;;;;;;;34.38;17.63;;;;;;;;;;5032529;28;20373;-62
2021/12/23 08:11:25;;;;;;;37.65;17.25;;;;;;;;;;5032367;28;20021;-58
2021/12/23 08:13:50;;;;;;;37.90;17.90;;;;;;;;;;5032323;28;20037;-61
2021/12/23 08:16:16;;;;;;;26.95;13.68;;;;;;;;;;5032168;28;20097;-60
2021/12/23 08:18:41;;;;;;;24.58;12.77;;;;;;;;;;5032401;28;20389;-59
2021/12/23 08:21:07;;;;;;;33.72;15.90;;;;;;;;;;5032628;28;20105;-59
2021/12/23 08:23:32;;;;;;;33.70;16.40;;;;;;;;;;5032320;28;20033;-59
2021/12/23 08:26:04;;;;;;;32.03;14.27;;;;;;;;;;5032130;28;20065;-59
2021/12/23 08:28:31;;;;;;;27.38;12.70;;;;;;;;;;5029843;28;20028;-61
2021/12/23 08:30:58;;;;;;;34.70;17.50;;;;;;;;;;5029893;28;20160;-60
2021/12/23 08:33:24;;;;;;;30.08;13.45;;;;;;;;;;5024521;28;20049;-61
2021/12/23 08:35:49;;;;;;;34.15;16.60;;;;;;;;;;5024219;28;20030;-60
2021/12/23 08:38:14;;;;;;;37.15;16.90;;;;;;;;;;5027430;28;20054;-59
2021/12/23 08:40:40;;;;;;;39.28;17.17;;;;;;;;;;5028111;28;20030;-65
2021/12/23 08:43:05;;;;;;;33.40;17.67;;;;;;;;;;5033390;28;20076;-59
2021/12/23 08:45:33;;;;;;;32.58;15.27;;;;;;;;;;5026518;28;20051;-65
2021/12/23 08:47:59;;;;;;;31.48;15.85;;;;;;;;;;5033253;28;20021;-65
2021/12/23 08:50:28;;;;;;;31.17;15.38;;;;;;;;;;5035534;28;20017;-64
2021/12/23 08:52:53;;;;;;;30.02;16.38;;;;;;;;;;5031304;28;20029;-66
2021/12/23 08:55:20;;;;;;;37.75;16.40;;;;;;;;;;5027449;28;20026;-64
2021/12/23 08:57:45;;;;;;;36.90;15.40;;;;;;;;;;5031307;28;20119;-65
2021/12/23 09:00:17;;;;;;;28.20;13.68;;;;;;;;;;5026463;28;20025;-64
2021/12/23 09:02:43;;;;;;;34.05;16.20;;;;;;;;;;5035256;28;20032;-60
2021/12/23 09:05:09;;;;;;;34.88;15.73;;;;;;;;;;5035162;28;20049;-66
2021/12/23 09:07:35;;;;;;;28.20;12.35;;;;;;;;;;5030329;28;20504;-66
2021/12/23 09:10:01;;;;;;;36.17;16.23;;;;;;;;;;5030435;28;20129;-65
2021/12/23 09:12:26;;;;;;;28.83;15.23;;;;;;;;;;5023189;28;20033;-65
2021/12/23 09:14:52;;;;;;;39.72;17.10;;;;;;;;;;5032142;28;20041;-63
2021/12/23 09:17:18;;;;;;;33.78;15.98;;;;;;;;;;5034852;28;20033;-64
2021/12/23 09:19:44;;;;;;;23.67;10.25;;;;;;;;;;5031613;28;20040;-64
2021/12/23 09:22:10;;;;;;;34.95;16.08;;;;;;;;;;5008859;28;20029;-64
2021/12/23 09:24:40;;;;;;;31.33;15.85;;;;;;;;;;5035045;28;20427;-66
2021/12/23 09:27:33;;;;;;;34.20;15.65;;;;;;;;;;5028026;28;20511;-66
2021/12/23 09:35:04;;;;;;;31.20;15.07;;;;;;;;;;5034577;28;20033;-66
2021/12/23 09:37:30;;;;;;;37.03;14.73;;;;;;;;;;5029374;28;20121;-65
2021/12/23 09:39:58;;;;;;;25.35;14.27;;;;;;;;;;5028317;28;20471;-63
2021/12/23 09:42:29;;;;;;;28.83;14.20;;;;;;;;;;5030123;28;20421;-65
2021/12/23 09:44:59;;;;;;;28.73;14.35;;;;;;;;;;5028186;28;20026;-65
2021/12/23 09:47:27;;;;;;;29.05;15.25;;;;;;;;;;5026728;28;20459;-65
2021/12/23 09:49:54;;;;;;;26.48;13.70;;;;;;;;;;5033609;28;20037;-65
2021/12/23 09:52:21;;;;;;;28.45;12.80;;;;;;;;;;5034132;28;20120;-63
2021/12/23 09:54:48;;;;;;;46.20;15.55;;;;;;;;;;5034014;28;20060;-67
2021/12/23 09:57:14;;;;;;;27.63;14.00;;;;;;;;;;5033998;28;20036;-66
2021/12/23 09:59:40;;;;;;;28.05;13.68;;;;;;;;;;5021773;28;20033;-66
2021/12/23 10:02:06;;;;;;;32.63;14.88;;;;;;;;;;5033888;28;20514;-66
2021/12/23 10:04:32;;;;;;;25.55;12.02;;;;;;;;;;5033355;28;20108;-66
2021/12/23 10:06:58;;;;;;;34.03;17.10;;;;;;;;;;5022691;28;20400;-60
2021/12/23 10:10:14;;;;;;;28.98;13.32;;;;;;;;;;5000926;28;20116;-66
2021/12/23 10:37:44;;;;;;;25.33;13.52;;;;;;;;;;4892242;29;20032;-60
2021/12/23 10:40:14;;;;;;;25.02;12.40;;;;;;;;;;4883258;29;20488;-62
2021/12/23 10:42:49;;;;;;;27.85;13.35;;;;;;;;;;4878462;29;20091;-60
2021/12/23 10:45:16;;;;;;;27.27;14.13;;;;;;;;;;4889728;29;20076;-60
2021/12/23 10:50:33;;;;;;;25.25;13.02;;;;;;;;;;4894578;29;20036;-60
2021/12/23 10:53:08;;;;;;;49.28;13.60;;;;;;;;;;4924911;29;20049;-61
2021/12/23 10:58:36;;;;;;;26.60;12.60;;;;;;;;;;4930218;29;20038;-60
2021/12/23 11:01:02;;;;;;;25.60;12.55;;;;;;;;;;4930683;29;20039;-60
2021/12/23 11:03:39;;;;;;;23.85;11.65;;;;;;;;;;4933501;29;20062;-63
2021/12/23 11:06:21;;;;;;;16.42;8.98;;;;;;;;;;4914566;29;20130;-60
2021/12/23 11:08:58;;;;;;;27.20;12.77;;;;;;;;;;4924673;29;20035;-59
2021/12/23 11:29:36;;;;;;;28.65;12.18;;;;;;;;;;4931804;29;20038;-65
2021/12/23 11:37:08;;;;;;;27.35;11.85;;;;;;;;;;5027121;28;20100;-67
2021/12/23 11:42:35;;;;;;;30.73;13.07;;;;;;;;;;5023720;28;20044;-65
2021/12/23 11:45:00;;;;;;;36.63;12.20;;;;;;;;;;5031502;28;20095;-64
2021/12/23 11:47:26;;;;;;;26.20;12.07;;;;;;;;;;5024751;28;20033;-67
2021/12/23 11:49:52;;;;;;;30.52;13.10;;;;;;;;;;5005707;28;20033;-66
2021/12/23 11:52:17;;;;;;;25.52;13.88;;;;;;;;;;5026795;28;20446;-67
2021/12/23 11:54:46;;;;;;;26.35;12.98;;;;;;;;;;5029728;28;20034;-64
2021/12/23 11:57:14;;;;;;;19.52;9.02;;;;;;;;;;5028567;28;20033;-64
2021/12/23 11:59:42;;;;;;;25.83;12.10;;;;;;;;;;5005520;28;20349;-63
2021/12/23 12:02:17;;;;;;;29.33;13.25;;;;;;;;;;5025020;28;20468;-63
2021/12/23 12:04:44;;;;;;;28.77;13.55;;;;;;;;;;5026317;28;20033;-64
2021/12/23 12:07:15;;;;;;;26.88;13.02;;;;;;;;;;5014238;28;20092;-60
2021/12/23 12:10:05;;;;;;;39.72;12.20;;;;;;;;;;5012237;28;20129;-60
2021/12/23 12:12:32;;;;;;;37.30;14.38;;;;;;;;;;5018732;28;20026;-60
2021/12/23 12:14:59;;;;;;;30.73;12.90;;;;;;;;;;5011413;28;20026;-60
2021/12/23 12:17:25;;;;;;;29.95;12.57;;;;;;;;;;5023556;28;20501;-62
2021/12/23 12:19:59;;;;;;;39.50;13.05;;;;;;;;;;5031558;28;20066;-63
2021/12/23 12:22:56;;;;;;;26.13;11.77;;;;;;;;;;5020453;28;20022;-61
2021/12/23 12:25:25;;;;;;;27.00;12.38;;;;;;;;;;5018671;28;20466;-61
2021/12/23 12:27:56;;;;;;;36.95;13.20;;;;;;;;;;5032155;28;20476;-60
2021/12/23 12:30:34;;;;;;;29.15;12.93;;;;;;;;;;5031489;28;20030;-62
2021/12/23 12:33:02;;;;;;;32.38;11.93;;;;;;;;;;5018679;28;20048;-59
2021/12/23 12:35:28;;;;;;;15.65;8.07;;;;;;;;;;5032204;28;20065;-60
2021/12/23 12:37:55;;;;;;;26.02;11.68;;;;;;;;;;5031537;28;20034;-59
2021/12/23 12:40:59;;;;;;;21.15;10.77;;;;;;;;;;5032348;28;20026;-60
2021/12/23 12:44:23;;;;;;;25.38;12.75;;;;;;;;;;5021587;28;20032;-61
2021/12/23 12:46:39;;;;;;;11.32;6.50;;;;;;;;;;5024074;28;20039;-59
2021/12/23 12:49:18;;;;;;;27.23;12.48;;;;;;;;;;5032012;28;20116;-59
2021/12/23 12:51:46;;;;;;;28.02;12.68;;;;;;;;;;5031884;28;20080;-59
2021/12/23 12:54:17;;;;;;;28.15;12.18;;;;;;;;;;5031935;28;20026;-59
2021/12/23 12:56:55;;;;;;;42.60;13.40;;;;;;;;;;5032074;28;20053;-59
2021/12/23 12:59:24;;;;;;;29.73;12.40;;;;;;;;;;5031951;28;20409;-59
2021/12/23 13:01:51;;;;;;;29.17;14.77;;;;;;;;;;5031940;28;20440;-59
2021/12/23 13:04:26;;;;;;;40.15;13.23;;;;;;;;;;5031758;28;20444;-59
2021/12/23 13:06:54;;;;;;;27.05;12.20;;;;;;;;;;5031286;28;20030;-59
2021/12/23 13:09:31;;;;;;;32.13;12.60;;;;;;;;;;5031773;28;20076;-58
2021/12/23 13:11:59;;;;;;;35.47;13.65;;;;;;;;;;5031028;28;20034;-59
2021/12/23 13:14:57;;;;;;;33.20;13.85;;;;;;;;;;5031441;28;20061;-60
2021/12/23 13:17:42;;;;;;;30.30;12.98;;;;;;;;;;5040660;28;20496;-65
2021/12/23 13:20:07;;;;;;;35.95;12.88;;;;;;;;;;5011704;28;20026;-60
2021/12/23 13:22:34;;;;;;;29.88;13.68;;;;;;;;;;5013298;28;20025;-62
2021/12/23 13:25:02;;;;;;;28.50;13.68;;;;;;;;;;5015226;28;20393;-67
2021/12/23 13:27:28;;;;;;;35.17;14.80;;;;;;;;;;5015313;28;20026;-65
2021/12/23 13:30:02;;;;;;;33.15;13.85;;;;;;;;;;5015356;28;20030;-64
2021/12/23 13:32:27;;;;;;;30.75;13.93;;;;;;;;;;5015502;28;20026;-62
2021/12/23 13:34:53;;;;;;;25.90;12.35;;;;;;;;;;5014746;28;20021;-64
2021/12/23 13:37:18;;;;;;;33.83;13.60;;;;;;;;;;5015226;28;20546;-65
2021/12/23 13:39:44;;;;;;;29.83;13.50;;;;;;;;;;5031055;28;20455;-64
2021/12/23 13:42:11;;;;;;;29.88;13.18;;;;;;;;;;5034840;28;20384;-66
2021/12/23 13:44:40;;;;;;;29.08;12.57;;;;;;;;;;5034580;28;20504;-66
2021/12/23 13:47:11;;;;;;;29.17;12.82;;;;;;;;;;5034911;28;20084;-63
2021/12/23 13:49:37;;;;;;;31.95;13.23;;;;;;;;;;5034275;28;20029;-65
2021/12/23 13:52:05;;;;;;;27.85;12.35;;;;;;;;;;5034787;28;20527;-61
2021/12/23 13:54:35;;;;;;;55.13;16.15;;;;;;;;;;5034519;28;20116;-66
2021/12/23 13:57:02;;;;;;;22.90;9.75;;;;;;;;;;5034610;28;20041;-59
2021/12/23 13:59:29;;;;;;;28.30;12.57;;;;;;;;;;5032624;28;20087;-59
2021/12/23 14:02:06;;;;;;;31.65;13.13;;;;;;;;;;5031199;28;20079;-60
2021/12/23 14:04:33;;;;;;;29.90;13.65;;;;;;;;;;5030986;28;20484;-61
2021/12/23 14:06:59;;;;;;;23.27;12.00;;;;;;;;;;5026935;28;20369;-60
2021/12/23 14:09:33;;;;;;;27.33;12.73;;;;;;;;;;5026461;28;20079;-61
2021/12/23 14:12:00;;;;;;;29.50;13.43;;;;;;;;;;5031455;28;20033;-63
2021/12/23 14:14:26;;;;;;;24.63;11.75;;;;;;;;;;5033674;28;20052;-60
2021/12/23 14:16:51;;;;;;;33.83;13.63;;;;;;;;;;5032537;28;20037;-63
2021/12/23 14:19:47;;;;;;;28.40;13.35;;;;;;;;;;5031000;28;20021;-60
2021/12/23 14:24:55;;;;;;;21.98;9.43;;;;;;;;;;5034031;28;20032;-59
2021/12/23 14:27:21;;;;;;;23.60;11.48;;;;;;;;;;5033716;28;20029;-59
2021/12/23 14:29:48;;;;;;;28.17;12.82;;;;;;;;;;5033698;28;20460;-60
2021/12/23 14:32:15;;;;;;;25.77;11.90;;;;;;;;;;5033359;28;20103;-61
2021/12/23 14:34:40;;;;;;;20.25;10.52;;;;;;;;;;5021448;28;20042;-61
2021/12/23 14:37:08;;;;;;;26.42;12.07;;;;;;;;;;5029595;28;20036;-59
2021/12/23 14:39:38;;;;;;;21.98;10.43;;;;;;;;;;5022148;28;20139;-60
2021/12/23 14:42:18;;;;;;;24.58;10.60;;;;;;;;;;5017452;28;20433;-65
2021/12/23 14:44:44;;;;;;;34.30;14.00;;;;;;;;;;5029384;28;20445;-63
2021/12/23 14:47:15;;;;;;;26.75;12.25;;;;;;;;;;5026777;28;20065;-65
2021/12/23 14:52:19;;;;;;;22.77;11.60;;;;;;;;;;5033096;28;20028;-63
2021/12/23 14:54:58;;;;;;;29.50;12.48;;;;;;;;;;5032871;28;20144;-63
2021/12/23 14:57:27;;;;;;;36.35;12.38;;;;;;;;;;5024659;28;20673;-65
2021/12/23 14:59:59;;;;;;;27.60;12.57;;;;;;;;;;5023065;28;20040;-62
2021/12/23 15:02:27;;;;;;;27.23;12.63;;;;;;;;;;5019722;28;20484;-66
2021/12/23 15:04:58;;;;;;;27.55;11.23;;;;;;;;;;5033532;28;20037;-65
2021/12/23 15:07:23;;;;;;;27.05;12.98;;;;;;;;;;5013925;28;20034;-65
2021/12/23 15:09:59;;;;;;;22.85;10.52;;;;;;;;;;5031248;28;20037;-67
2021/12/23 15:12:25;;;;;;;26.27;12.30;;;;;;;;;;5032217;28;20080;-65
2021/12/23 15:14:55;;;;;;;27.20;12.18;;;;;;;;;;5032454;28;20083;-60
2021/12/23 15:17:33;;;;;;;23.83;10.75;;;;;;;;;;5025287;28;20029;-59
2021/12/23 15:19:59;;;;;;;25.95;11.93;;;;;;;;;;5012655;28;20029;-65
2021/12/23 15:22:26;;;;;;;22.95;11.23;;;;;;;;;;5013412;28;20034;-64
2021/12/23 15:25:21;;;;;;;28.38;12.75;;;;;;;;;;5012524;28;20115;-64
2021/12/23 15:27:46;;;;;;;42.03;12.85;;;;;;;;;;5012502;28;20120;-62
2021/12/23 15:30:22;;;;;;;27.08;13.02;;;;;;;;;;5032099;28;20191;-66
2021/12/23 15:32:47;;;;;;;28.80;13.02;;;;;;;;;;5032038;28;20563;-63
2021/12/23 15:35:17;;;;;;;24.83;12.13;;;;;;;;;;5032191;28;20120;-65
2021/12/23 15:37:45;;;;;;;25.05;12.88;;;;;;;;;;5031985;28;20030;-68
2021/12/23 15:40:16;;;;;;;25.05;12.48;;;;;;;;;;5032539;28;20101;-65